Time;durP1;ratioP1;P1;durP2;ratioP2;P2;SDS_P1;SDS_P2;PMS_P1;PMS_P2;Temp;Humidity;BMP_temperature;BMP_pressure;BME280_temperature;BME280_humidity;BME280_pressure;Samples;Min_cycle;Max_cycle;Signal;HPM_P1;HPM_P2
2021/04/21 00:02:21;;;;;;;24.82;14.63;;;;;;;7.33;77.46;100315.84;1794869;80;21167;-74
2021/04/21 00:04:48;;;;;;;25.67;18.17;;;;;;;7.30;77.49;100309.51;1794620;80;21131;-74
2021/04/21 00:07:21;;;;;;;28.35;19.07;;;;;;;7.25;77.54;100308.28;1794762;80;21199;-74
2021/04/21 00:09:49;;;;;;;28.62;21.10;;;;;;;7.22;77.58;100308.09;1794934;80;21147;-74
2021/04/21 00:12:16;;;;;;;30.50;20.55;;;;;;;7.17;77.63;100307.73;1794563;80;21589;-74
2021/04/21 00:14:45;;;;;;;34.18;20.70;;;;;;;7.14;77.66;100300.08;1794273;80;21206;-74
2021/04/21 00:17:11;;;;;;;29.30;21.77;;;;;;;7.10;77.67;100297.38;1785786;80;21164;-74
2021/04/21 00:19:38;;;;;;;29.07;22.13;;;;;;;7.07;77.71;100300.34;1786143;80;21140;-74
2021/04/21 00:22:05;;;;;;;29.80;20.62;;;;;;;7.06;77.73;100293.84;1786028;80;21139;-74
2021/04/21 00:24:33;;;;;;;33.98;22.52;;;;;;;7.03;77.71;100291.84;1786360;80;21237;-74
2021/04/21 00:26:59;;;;;;;24.77;18.60;;;;;;;7.00;77.74;100290.80;1785589;80;21144;-74
2021/04/21 00:29:26;;;;;;;28.40;19.75;;;;;;;6.98;77.76;100290.61;1753018;80;21224;-73
2021/04/21 00:31:52;;;;;;;32.73;20.45;;;;;;;6.97;77.80;100295.56;1785784;80;21148;-73
2021/04/21 00:34:18;;;;;;;30.30;18.60;;;;;;;6.96;77.82;100288.61;1785702;79;21147;-74
2021/04/21 00:36:49;;;;;;;26.68;18.75;;;;;;;6.96;77.87;100285.97;1785703;80;21257;-73
2021/04/21 00:39:15;;;;;;;26.48;18.62;;;;;;;6.97;77.92;100288.94;1785620;80;21144;-74
2021/04/21 00:41:50;;;;;;;28.00;18.95;;;;;;;6.98;77.96;100294.59;1752895;80;21116;-74
2021/04/21 00:44:42;;;;;;;28.12;19.98;;;;;;;6.99;77.98;100291.80;1785657;80;21135;-74
2021/04/21 00:47:12;;;;;;;28.85;18.92;;;;;;;7.00;78.03;100283.36;1785539;80;21148;-74
2021/04/21 00:50:03;;;;;;;25.35;17.55;;;;;;;7.05;78.09;100283.73;1785806;80;21206;-74
2021/04/21 00:52:34;;;;;;;25.68;18.67;;;;;;;7.05;78.11;100281.08;1785384;80;21566;-74
2021/04/21 00:55:12;;;;;;;22.98;17.30;;;;;;;7.03;78.15;100279.92;1785562;80;21164;-73
2021/04/21 00:58:23;;;;;;;23.22;17.52;;;;;;;7.01;78.20;100283.68;1785424;80;21112;-74
2021/04/21 01:00:49;;;;;;;27.73;18.20;;;;;;;7.00;78.25;100278.06;1785668;80;21147;-73
2021/04/21 01:03:23;;;;;;;24.70;17.85;;;;;;;7.00;78.30;100274.08;1728109;80;21284;-73
2021/04/21 01:06:02;;;;;;;24.20;18.65;;;;;;;6.98;78.33;100274.70;1753802;80;21605;-74
2021/04/21 01:08:35;;;;;;;23.73;15.83;;;;;;;6.99;78.34;100272.41;1786029;80;21591;-74
2021/04/21 01:11:24;;;;;;;30.70;19.48;;;;;;;6.95;78.38;100272.36;1779358;80;21593;-73
2021/04/21 01:13:53;;;;;;;31.95;19.32;;;;;;;6.95;78.44;100271.03;1785494;80;21136;-73
2021/04/21 01:16:26;;;;;;;27.58;19.98;;;;;;;6.93;78.50;100273.02;1753339;80;21335;-74
2021/04/21 01:18:54;;;;;;;28.62;19.92;;;;;;;6.92;78.53;100270.02;1785699;80;21706;-73
2021/04/21 01:21:42;;;;;;;30.50;22.13;;;;;;;6.91;78.55;100265.69;1785631;80;21207;-73
2021/04/21 01:24:53;;;;;;;27.17;21.50;;;;;;;6.90;78.57;100270.14;1785812;80;21124;-73
2021/04/21 01:27:21;;;;;;;30.50;20.57;;;;;;;6.89;78.59;100271.64;1785720;80;21124;-73
2021/04/21 01:29:53;;;;;;;29.77;20.05;;;;;;;6.87;78.61;100269.61;1785677;80;21219;-74
2021/04/21 01:32:26;;;;;;;27.35;20.17;;;;;;;6.85;78.65;100267.61;1751408;80;21577;-73
2021/04/21 01:34:54;;;;;;;33.08;20.32;;;;;;;6.80;78.66;100267.22;1785699;79;21155;-74
2021/04/21 01:37:28;;;;;;;26.33;19.05;;;;;;;6.77;78.68;100267.52;1785779;80;21098;-73
2021/04/21 01:39:57;;;;;;;33.18;20.48;;;;;;;6.77;78.73;100262.22;1784863;80;21754;-73
2021/04/21 01:42:26;;;;;;;31.52;20.48;;;;;;;6.79;78.74;100266.89;1751790;80;21207;-73
2021/04/21 01:44:53;;;;;;;33.15;19.85;;;;;;;6.80;78.77;100269.86;1785646;80;21151;-73
2021/04/21 01:47:21;;;;;;;25.00;19.45;;;;;;;6.81;78.78;100264.43;1785476;80;21604;-73
2021/04/21 01:50:03;;;;;;;27.73;20.15;;;;;;;6.83;78.83;100267.75;1785668;80;21113;-73
2021/04/21 01:52:41;;;;;;;28.57;20.10;;;;;;;6.83;78.86;100266.42;1785773;80;21151;-74
2021/04/21 01:55:25;;;;;;;27.00;19.85;;;;;;;6.81;78.89;100264.43;1785690;80;22205;-73
2021/04/21 01:58:07;;;;;;;30.52;21.23;;;;;;;6.81;78.94;100266.23;1785532;80;21144;-73
2021/04/21 02:00:42;;;;;;;26.17;20.60;;;;;;;6.79;79.00;100260.27;1785675;80;21179;-74
2021/04/21 02:03:20;;;;;;;30.82;21.68;;;;;;;6.80;79.04;100260.59;1751577;80;21207;-74
2021/04/21 02:06:10;;;;;;;29.40;20.45;;;;;;;6.78;79.07;100255.45;1785543;80;21147;-74
2021/04/21 02:09:05;;;;;;;;;;;;;;;6.77;79.11;100256.43;1788315;80;21667;-73
2021/04/21 02:11:34;;;;;;;30.48;21.60;;;;;;;6.73;79.15;100256.38;1785656;80;20423;-74
2021/04/21 02:14:27;;;;;;;30.17;21.50;;;;;;;6.69;79.20;100252.36;1785948;80;21160;-74
2021/04/21 02:17:32;;;;;;;27.65;19.48;;;;;;;6.68;79.25;100252.52;1777529;80;21855;-73
2021/04/21 02:20:07;;;;;;;34.70;22.62;;;;;;;6.66;79.28;100251.81;1785206;80;21603;-73
2021/04/21 02:22:54;;;;;;;28.62;20.48;;;;;;;6.65;79.32;100251.50;1785615;80;21198;-74
2021/04/21 02:25:28;;;;;;;27.00;19.40;;;;;;;6.63;79.36;100250.80;1785550;80;21152;-73
2021/04/21 02:28:06;;;;;;;28.45;19.27;;;;;;;6.62;79.39;100250.44;1784897;80;21569;-74
2021/04/21 02:30:46;;;;;;;30.32;20.52;;;;;;;6.63;79.43;100249.47;1785680;80;21179;-74
2021/04/21 02:33:30;;;;;;;28.77;19.55;;;;;;;6.65;79.46;100254.15;1785187;80;21203;-74
2021/04/21 02:36:12;;;;;;;26.45;19.17;;;;;;;6.61;79.50;100254.09;1785234;79;21257;-73
2021/04/21 02:38:43;;;;;;;25.00;18.52;;;;;;;6.60;79.55;100247.13;1753129;80;21163;-74
2021/04/21 02:41:17;;;;;;;29.00;20.52;;;;;;;6.61;79.58;100244.34;1785690;80;21171;-74
2021/04/21 02:43:49;;;;;;;27.22;19.85;;;;;;;6.60;79.60;100243.14;1753557;80;21171;-74
2021/04/21 02:46:29;;;;;;;31.62;20.25;;;;;;;6.56;79.63;100248.39;1785706;80;21636;-74
2021/04/21 02:49:52;;;;;;;31.90;20.75;;;;;;;6.52;79.70;100247.37;1785300;80;22086;-74
2021/04/21 02:52:52;;;;;;;26.07;18.92;;;;;;;6.49;79.74;100245.50;1785540;80;21167;-74
2021/04/21 02:55:45;;;;;;;28.10;20.08;;;;;;;6.46;79.78;100245.32;1785481;80;21128;-74
2021/04/21 02:58:37;;;;;;;31.93;20.77;;;;;;;6.43;79.78;100245.62;1785664;80;21156;-73
2021/04/21 03:01:15;;;;;;;23.77;18.15;;;;;;;6.38;79.77;100243.88;1785602;80;21143;-73
2021/04/21 03:03:59;;;;;;;29.25;19.60;;;;;;;6.32;79.79;100236.53;1785604;80;21258;-73
2021/04/21 03:06:31;;;;;;;29.05;19.57;;;;;;;6.26;79.78;100237.09;1785566;80;21700;-74
2021/04/21 03:09:07;;;;;;;25.95;19.77;;;;;;;6.21;79.80;100236.72;1785493;80;21589;-73
2021/04/21 03:11:45;;;;;;;36.45;21.37;;;;;;;6.25;79.82;100243.39;1810868;77;22719;-74
2021/04/21 03:14:29;;;;;;;37.50;25.35;;;;;;;6.15;79.84;100243.09;1763664;79;21116;-74
2021/04/21 03:16:57;;;;;;;41.98;25.60;;;;;;;6.11;79.87;100235.09;1796791;79;21251;-73
2021/04/21 03:19:37;;;;;;;38.73;25.85;;;;;;;6.08;79.87;100242.00;1796924;79;21028;-73
2021/04/21 03:22:15;;;;;;;35.85;24.35;;;;;;;6.05;79.90;100237.84;1796822;79;21170;-73
2021/04/21 03:24:59;;;;;;;30.90;22.22;;;;;;;5.98;79.94;100238.08;1764892;79;21128;-73
2021/04/21 03:27:28;;;;;;;33.53;22.65;;;;;;;5.95;79.99;100237.02;1796895;79;21172;-73
2021/04/21 03:29:54;;;;;;;42.80;26.20;;;;;;;5.90;80.04;100235.31;1797048;79;22130;-73
2021/04/21 03:32:23;;;;;;;35.68;24.05;;;;;;;5.84;80.08;100229.25;1796893;79;21127;-73
2021/04/21 03:34:50;;;;;;;34.43;23.45;;;;;;;5.80;80.12;100236.64;1796066;79;21628;-73
2021/04/21 03:37:47;;;;;;;40.28;26.35;;;;;;;5.81;80.13;100238.28;1794499;79;21738;-73
2021/04/21 03:40:14;;;;;;;46.02;29.75;;;;;;;5.80;80.16;100239.77;1794947;80;21675;-73
2021/04/21 03:42:42;;;;;;;49.75;38.33;;;;;;;5.79;80.17;100233.64;1794820;80;21223;-73
2021/04/21 03:45:10;;;;;;;67.03;53.48;;;;;;;5.81;80.19;100236.12;1794810;80;21242;-73
2021/04/21 03:47:36;;;;;;;56.33;41.42;;;;;;;5.84;80.20;100235.86;1794853;80;21147;-73
2021/04/21 03:50:05;;;;;;;46.45;33.23;;;;;;;5.86;80.24;100239.22;1794759;80;21167;-74
2021/04/21 03:52:34;;;;;;;38.28;29.20;;;;;;;5.87;80.26;100232.95;1794911;80;21132;-73
2021/04/21 03:55:01;;;;;;;34.10;26.33;;;;;;;5.88;80.30;100234.11;1794574;80;21209;-74
2021/04/21 03:57:29;;;;;;;31.65;23.38;;;;;;;5.89;80.33;100231.82;1763785;80;21135;-74
2021/04/21 03:59:56;;;;;;;30.32;22.85;;;;;;;5.90;80.37;100237.95;1794766;80;21167;-74
2021/04/21 04:02:23;;;;;;;43.28;26.20;;;;;;;5.89;80.42;100238.92;1794707;80;21182;-73
2021/04/21 04:04:53;;;;;;;43.28;26.02;;;;;;;5.93;80.47;100244.28;1794424;80;21111;-74
2021/04/21 04:07:19;;;;;;;38.02;25.92;;;;;;;5.94;80.54;100240.66;1794843;80;21203;-73
2021/04/21 04:09:47;;;;;;;34.15;25.32;;;;;;;5.94;80.57;100238.02;1794187;80;21202;-73
2021/04/21 04:12:13;;;;;;;29.60;21.73;;;;;;;5.97;80.59;100235.08;1785966;80;21647;-73
2021/04/21 04:14:40;;;;;;;33.60;25.02;;;;;;;6.01;80.61;100238.62;1786478;80;21164;-73
2021/04/21 04:17:06;;;;;;;36.73;26.33;;;;;;;6.02;80.64;100239.43;1786185;80;21171;-73
2021/04/21 04:19:36;;;;;;;36.05;28.38;;;;;;;6.04;80.66;100240.14;1786461;80;22247;-73
2021/04/21 04:22:12;;;;;;;35.97;26.77;;;;;;;6.79;81.02;100229.79;1786152;80;21120;-74
2021/04/21 04:24:48;;;;;;;34.67;24.50;;;;;;;6.79;81.02;100229.79;1784835;80;21571;-74
2021/04/21 04:27:23;;;;;;;31.25;21.87;;;;;;;7.44;80.99;100245.31;1751098;81;21648;-74
2021/04/21 04:29:50;;;;;;;28.77;22.05;;;;;;;7.91;80.90;100247.15;1785188;80;21155;-74
2021/04/21 04:32:23;;;;;;;31.90;22.10;;;;;;;8.36;80.80;100242.94;1785702;80;21193;-74
2021/04/21 04:34:51;;;;;;;28.83;21.37;;;;;;;8.74;80.74;100238.07;1785627;79;21148;-74
2021/04/21 04:37:19;;;;;;;30.70;25.08;;;;;;;9.17;80.65;100235.17;1785744;80;21207;-74
2021/04/21 04:39:47;;;;;;;36.53;24.02;;;;;;;9.37;80.33;100245.82;1785216;80;21175;-74
2021/04/21 04:42:13;;;;;;;29.82;22.25;;;;;;;9.12;79.75;100244.63;1785478;80;21188;-74
2021/04/21 04:44:42;;;;;;;28.42;20.62;;;;;;;9.26;79.78;100242.15;1785776;80;21199;-74
2021/04/21 04:47:30;;;;;;;27.42;20.77;;;;;;;9.83;79.95;100246.12;1785717;80;21176;-74
2021/04/21 04:50:06;;;;;;;29.35;23.10;;;;;;;10.38;79.86;100243.00;1785740;80;21200;-75
2021/04/21 04:52:34;;;;;;;29.95;19.00;;;;;;;10.90;79.46;100238.44;1785650;80;21607;-75
2021/04/21 04:55:02;;;;;;;37.45;24.50;;;;;;;11.74;79.05;100246.34;1785648;80;21128;-75
2021/04/21 04:57:32;;;;;;;24.43;20.40;;;;;;;12.12;78.56;100249.80;1785709;80;22215;-75
2021/04/21 05:00:07;;;;;;;27.05;20.92;;;;;;;12.28;78.15;100246.93;1785563;80;21604;-75
2021/04/21 05:02:37;;;;;;;27.52;21.40;;;;;;;12.54;77.58;100241.11;1785800;80;21653;-75
2021/04/21 05:05:08;;;;;;;;;;;;;;;12.77;77.09;100236.45;1788372;80;21151;-75
2021/04/21 05:07:47;;;;;;;46.98;29.77;;;;;;;12.70;75.97;100244.11;1785598;80;20254;-75
2021/04/21 05:10:18;;;;;;;40.67;28.12;;;;;;;12.12;75.24;100245.78;1785372;80;21290;-75
2021/04/21 05:12:44;;;;;;;27.30;20.90;;;;;;;11.42;75.27;100238.07;1785563;80;21127;-74
2021/04/21 05:15:41;;;;;;;25.90;21.07;;;;;;;10.99;75.48;100242.21;1785800;80;21132;-74
2021/04/21 05:18:55;;;;;;;25.52;21.12;;;;;;;10.89;75.63;100248.28;1754983;80;21155;-74
2021/04/21 05:21:59;;;;;;;28.45;21.40;;;;;;;10.85;75.79;100248.80;1785292;80;21128;-74
2021/04/21 05:24:46;;;;;;;22.67;19.12;;;;;;;10.84;75.74;100253.30;1785633;80;21656;-74
2021/04/21 05:27:59;;;;;;;26.50;19.85;;;;;;;10.69;75.61;100252.39;1784045;80;21183;-74
2021/04/21 05:30:59;;;;;;;26.35;20.70;;;;;;;10.65;75.59;100256.91;1785523;80;21751;-74
2021/04/21 05:34:00;;;;;;;39.90;24.82;;;;;;;10.58;75.43;100258.61;1785794;80;21199;-75
2021/04/21 05:36:54;;;;;;;60.73;31.77;;;;;;;10.69;75.32;100255.56;1785526;80;21668;-75
2021/04/21 05:39:44;;;;;;;59.27;39.40;;;;;;;10.71;75.18;100254.88;1785593;80;22010;-75
2021/04/21 05:42:33;;;;;;;59.83;43.10;;;;;;;10.69;75.15;100260.89;1785793;80;21580;-75
2021/04/21 05:45:37;;;;;;;50.73;39.25;;;;;;;10.69;75.15;100263.06;1764779;80;21151;-75
2021/04/21 05:48:29;;;;;;;45.58;31.55;;;;;;;10.73;75.04;100256.88;1785622;80;21672;-75
2021/04/21 05:51:37;;;;;;;32.58;23.35;;;;;;;10.75;74.88;100264.19;1785728;80;21625;-75
2021/04/21 05:54:30;;;;;;;29.75;20.30;;;;;;;10.78;74.71;100270.01;1775955;80;21195;-75
2021/04/21 05:57:17;;;;;;;29.15;21.33;;;;;;;10.80;74.63;100268.52;1784807;80;21179;-75
2021/04/21 06:00:30;;;;;;;25.15;20.15;;;;;;;10.98;74.64;100269.89;1785271;80;21187;-75
2021/04/21 06:02:56;;;;;;;29.30;21.12;;;;;;;11.00;74.50;100267.06;1785708;80;21176;-75
2021/04/21 06:05:22;;;;;;;29.12;21.93;;;;;;;10.99;74.40;100270.23;1785993;80;21584;-76
2021/04/21 06:07:49;;;;;;;26.15;21.65;;;;;;;10.98;74.25;100265.05;1743955;78;21283;-76
2021/04/21 06:10:29;;;;;;;33.28;21.73;;;;;;;10.91;74.10;100268.93;1774032;80;21132;-76
2021/04/21 06:13:01;;;;;;;25.35;19.23;;;;;;;10.91;74.03;100264.09;1785951;80;21164;-76
2021/04/21 06:15:34;;;;;;;19.60;16.97;;;;;;;11.07;73.93;100265.35;1748225;81;21203;-76
2021/04/21 06:18:03;;;;;;;28.02;19.70;;;;;;;11.19;73.82;100262.59;1758185;81;21102;-76
2021/04/21 06:20:41;;;;;;;34.50;21.15;;;;;;;11.14;73.67;100263.64;1766439;80;22054;-75
2021/04/21 06:23:18;;;;;;;28.98;24.92;;;;;;;11.27;73.66;100266.55;1736286;82;21171;-76
2021/04/21 06:25:50;;;;;;;32.88;20.50;;;;;;;11.15;73.40;100261.30;1795735;78;21112;-76
2021/04/21 06:31:13;;;;;;;26.48;18.37;;;;;;;11.26;73.23;100262.73;1852093;77;22871;-76
2021/04/21 06:33:45;;;;;;;21.55;17.90;;;;;;;11.22;73.08;100266.27;1813858;78;21113;-76
2021/04/21 06:36:13;;;;;;;26.35;17.15;;;;;;;11.22;72.95;100266.27;1785362;80;21188;-75
2021/04/21 06:38:40;;;;;;;23.22;17.42;;;;;;;11.16;72.77;100262.95;1786948;80;21057;-76
2021/04/21 06:41:06;;;;;;;24.02;16.85;;;;;;;11.23;72.69;100260.39;1768262;80;21148;-76
2021/04/21 06:43:36;;;;;;;26.48;17.70;;;;;;;11.36;72.62;100264.66;1784088;79;21191;-76
2021/04/21 06:46:03;;;;;;;30.48;21.97;;;;;;;11.46;72.50;100264.75;1776810;79;21151;-76
2021/04/21 06:48:33;;;;;;;29.43;18.23;;;;;;;11.51;72.36;100259.68;1752869;81;21265;-75
2021/04/21 06:51:12;;;;;;;29.07;18.32;;;;;;;11.63;72.24;100264.60;1729900;83;21612;-76
2021/04/21 06:53:39;;;;;;;26.55;15.70;;;;;;;11.69;72.08;100267.87;1755346;81;21186;-75
2021/04/21 06:56:06;;;;;;;31.37;18.32;;;;;;;11.88;71.97;100268.75;1756580;81;21616;-75
2021/04/21 06:58:37;;;;;;;25.05;17.07;;;;;;;11.98;71.84;100263.98;1756842;81;21164;-76
2021/04/21 07:01:14;;;;;;;21.35;16.32;;;;;;;12.03;71.64;100262.41;1759492;80;22606;-75
2021/04/21 07:03:42;;;;;;;26.48;17.77;;;;;;;12.02;71.42;100270.63;1758994;81;21589;-75
2021/04/21 07:06:08;;;;;;;20.10;14.85;;;;;;;12.13;71.30;100267.50;1776268;80;21191;-75
2021/04/21 07:08:38;;;;;;;25.97;16.45;;;;;;;12.25;71.14;100266.02;1759290;80;21104;-76
2021/04/21 07:11:09;;;;;;;23.42;15.30;;;;;;;12.39;71.01;100265.20;1758349;80;21119;-76
2021/04/21 07:13:49;;;;;;;22.07;13.43;;;;;;;12.63;70.83;100276.10;1756898;81;21296;-76
2021/04/21 07:16:24;;;;;;;28.60;17.30;;;;;;;12.65;70.56;100261.22;1763576;80;28893;-76
2021/04/21 07:18:59;;;;;;;23.20;15.55;;;;;;;12.75;70.29;100265.77;1769069;80;21518;-76
2021/04/21 07:21:28;;;;;;;22.82;13.35;;;;;;;12.74;69.96;100264.09;1763565;80;21647;-76
2021/04/21 07:23:57;;;;;;;23.12;13.05;;;;;;;12.92;69.73;100258.67;1765714;80;21148;-76
2021/04/21 07:26:32;;;;;;;18.07;12.75;;;;;;;12.97;69.32;100262.12;1752993;80;21219;-76
2021/04/21 07:28:59;;;;;;;31.70;15.93;;;;;;;12.96;68.93;100261.80;1706782;82;21193;-75
2021/04/21 07:31:25;;;;;;;27.25;15.63;;;;;;;12.97;68.58;100263.47;1711761;83;21153;-76
2021/04/21 07:33:51;;;;;;;23.27;13.40;;;;;;;12.93;68.06;100263.52;1755771;80;21247;-76
2021/04/21 07:36:23;;;;;;;23.92;13.05;;;;;;;13.01;67.76;100264.75;1724171;83;21171;-76
2021/04/21 07:38:55;;;;;;;23.15;16.07;;;;;;;13.08;67.37;100268.33;1755637;81;21254;-76
2021/04/21 07:41:36;;;;;;;23.12;14.25;;;;;;;13.10;67.00;100264.97;1745601;81;21589;-76
2021/04/21 07:44:04;;;;;;;23.02;14.93;;;;;;;13.26;66.76;100259.91;1704130;83;21148;-76
2021/04/21 07:46:30;;;;;;;23.60;14.38;;;;;;;13.35;66.50;100257.41;1767536;80;21128;-76
2021/04/21 07:48:57;;;;;;;16.67;12.37;;;;;;;13.48;66.26;100265.05;1771221;80;21621;-77
2021/04/21 07:51:29;;;;;;;19.95;11.45;;;;;;;13.57;66.06;100266.27;1751452;81;21245;-76
2021/04/21 07:54:02;;;;;;;20.23;11.95;;;;;;;13.56;65.71;100268.63;1743410;81;21171;-76
2021/04/21 07:56:37;;;;;;;24.15;13.40;;;;;;;13.55;65.40;100265.62;1740438;81;21691;-76
2021/04/21 07:59:28;;;;;;;32.30;15.68;;;;;;;13.59;65.16;100264.22;1727904;81;21137;-77
2021/04/21 08:02:09;;;;;;;20.70;11.68;;;;;;;13.64;64.88;100258.61;1740600;82;21147;-76
2021/04/21 08:04:54;;;;;;;19.70;10.82;;;;;;;13.68;64.53;100265.75;1740999;82;22097;-76
2021/04/21 08:07:42;;;;;;;20.35;12.03;;;;;;;13.61;64.23;100259.52;1738120;82;21479;-77
2021/04/21 08:10:24;;;;;;;24.65;13.08;;;;;;;13.73;64.07;100264.65;1732400;82;21167;-77
2021/04/21 08:12:52;;;;;;;24.02;12.63;;;;;;;13.77;63.75;100263.24;1739635;82;21139;-77
2021/04/21 08:15:19;;;;;;;22.60;11.90;;;;;;;13.96;63.55;100271.46;1737159;81;21190;-76
2021/04/21 08:18:09;;;;;;;30.25;13.28;;;;;;;14.07;63.33;100270.09;1726746;82;21290;-77
2021/04/21 08:20:42;;;;;;;16.55;11.30;;;;;;;14.16;63.16;100265.39;1709015;82;21187;-76
2021/04/21 08:23:10;;;;;;;18.45;13.05;;;;;;;14.40;63.06;100265.78;1709092;83;21186;-76
2021/04/21 08:25:36;;;;;;;15.38;10.75;;;;;;;14.38;62.83;100267.85;1720626;82;21224;-76
2021/04/21 08:28:03;;;;;;;24.52;15.78;;;;;;;14.56;62.76;100266.50;1723621;82;21195;-76
2021/04/21 08:30:30;;;;;;;23.90;13.08;;;;;;;14.61;62.47;100261.34;1758543;80;21615;-76
2021/04/21 08:32:57;;;;;;;23.45;11.57;;;;;;;14.56;62.23;100256.59;1720890;82;21182;-75
2021/04/21 08:35:23;;;;;;;20.85;11.55;;;;;;;14.55;61.97;100262.15;1755013;81;21214;-76
2021/04/21 08:37:50;;;;;;;21.75;11.00;;;;;;;14.55;61.81;100268.86;1693560;84;21185;-76
2021/04/21 08:40:22;;;;;;;18.42;11.00;;;;;;;14.52;61.62;100251.81;1741711;81;21619;-76
2021/04/21 08:42:58;;;;;;;31.07;13.40;;;;;;;14.64;61.40;100271.67;1721459;82;21353;-76
2021/04/21 08:45:25;;;;;;;57.58;19.20;;;;;;;14.54;61.19;100270.70;1724185;83;21195;-76
2021/04/21 08:47:51;;;;;;;24.43;12.35;;;;;;;14.53;61.10;100273.06;1752312;81;21507;-76
2021/04/21 08:50:17;;;;;;;13.53;8.78;;;;;;;14.48;60.72;100271.00;1759511;81;21198;-76
2021/04/21 08:52:51;;;;;;;15.58;9.45;;;;;;;14.46;60.58;100258.81;1747935;80;21204;-76
2021/04/21 08:55:19;;;;;;;12.70;9.30;;;;;;;14.68;60.60;100274.28;1744626;80;21204;-77
2021/04/21 08:57:46;;;;;;;15.38;8.80;;;;;;;14.73;60.17;100273.18;1739560;81;21189;-77
2021/04/21 09:00:15;;;;;;;27.62;12.78;;;;;;;14.73;60.17;100273.18;1711564;82;21590;-76
2021/04/21 09:02:42;;;;;;;12.95;9.08;;;;;;;14.75;60.08;100273.80;1726312;81;21141;-76
2021/04/21 09:05:10;;;;;;;13.83;9.43;;;;;;;14.75;59.94;100277.82;1699608;83;21826;-76
2021/04/21 09:07:38;;;;;;;18.75;8.80;;;;;;;14.80;59.86;100272.70;1748488;81;21203;-76
2021/04/21 09:10:07;;;;;;;16.93;9.25;;;;;;;14.89;59.83;100273.66;1749202;81;21180;-76
2021/04/21 09:12:33;;;;;;;21.90;11.57;;;;;;;14.96;59.77;100273.67;1747421;81;21174;-76
2021/04/21 09:15:00;;;;;;;14.20;8.15;;;;;;;15.12;59.45;100251.84;1734406;81;21182;-76
2021/04/21 09:17:26;;;;;;;15.83;9.25;;;;;;;15.12;59.45;100251.84;1720088;81;21192;-76
2021/04/21 09:19:52;;;;;;;19.55;8.88;;;;;;;15.22;59.31;100271.09;1732400;81;21194;-76
2021/04/21 09:22:20;;;;;;;12.10;8.08;;;;;;;15.32;59.35;100266.14;1734411;81;21104;-77
2021/04/21 09:24:59;;;;;;;13.98;9.48;;;;;;;15.45;59.09;100267.50;1734367;82;21183;-76
2021/04/21 09:27:35;;;;;;;14.10;8.63;;;;;;;15.52;58.83;100272.91;1736030;82;21199;-76
2021/04/21 09:30:21;;;;;;;10.32;7.80;;;;;;;15.46;58.55;100262.45;1733647;82;21169;-76
2021/04/21 09:32:52;;;;;;;17.10;10.18;;;;;;;15.40;58.37;100268.64;1701228;83;21552;-76
2021/04/21 09:35:28;;;;;;;16.65;8.53;;;;;;;15.50;58.34;100270.95;1711805;82;21635;-76
2021/04/21 09:38:04;;;;;;;15.43;8.78;;;;;;;15.54;58.09;100276.75;1703713;82;21212;-76
2021/04/21 09:40:49;;;;;;;11.83;8.48;;;;;;;15.60;57.94;100274.58;1706487;84;21179;-76
2021/04/21 09:43:23;;;;;;;15.38;9.30;;;;;;;15.76;57.85;100266.12;1725236;82;21589;-76
2021/04/21 09:45:58;;;;;;;13.55;8.00;;;;;;;15.89;57.68;100267.47;1724255;83;21270;-76
2021/04/21 09:48:32;;;;;;;15.08;8.80;;;;;;;15.97;57.44;100263.23;1725054;83;21184;-75
2021/04/21 09:51:07;;;;;;;12.00;8.28;;;;;;;16.00;57.29;100266.84;1724835;82;21140;-75
2021/04/21 09:53:38;;;;;;;15.75;8.38;;;;;;;16.07;57.12;100264.14;1725119;82;21188;-75
2021/04/21 09:56:19;;;;;;;12.47;6.92;;;;;;;15.98;56.85;100262.17;1725146;82;21133;-75
2021/04/21 09:58:54;;;;;;;14.25;7.58;;;;;;;15.87;56.56;100262.28;1725105;82;22142;-75
2021/04/21 10:01:32;;;;;;;10.28;7.33;;;;;;;15.83;56.25;100260.23;1725084;82;21204;-75
2021/04/21 10:04:10;;;;;;;12.43;8.33;;;;;;;15.82;56.00;100255.88;1724943;82;21156;-75
2021/04/21 10:06:42;;;;;;;9.33;6.60;;;;;;;15.96;55.87;100254.84;1719702;83;21652;-76
2021/04/21 10:09:28;;;;;;;14.33;8.40;;;;;;;16.14;55.70;100254.20;1724946;83;21160;-75
2021/04/21 10:12:18;;;;;;;11.33;7.60;;;;;;;16.13;55.59;100253.37;1724999;83;21270;-76
2021/04/21 10:15:04;;;;;;;14.75;8.03;;;;;;;16.14;55.41;100246.95;1722565;83;21198;-76
2021/04/21 10:17:35;;;;;;;15.40;6.42;;;;;;;16.07;55.18;100254.21;1702157;83;21180;-76
2021/04/21 10:20:04;;;;;;;14.15;7.60;;;;;;;16.12;55.05;100254.39;1725012;83;21132;-76
2021/04/21 10:22:30;;;;;;;13.47;6.87;;;;;;;16.19;54.83;100254.37;1698833;83;21179;-76
2021/04/21 10:24:57;;;;;;;14.68;7.40;;;;;;;16.22;54.63;100245.37;1724988;83;21156;-76
2021/04/21 10:27:23;;;;;;;12.68;6.50;;;;;;;16.29;54.45;100248.88;1725182;82;21192;-76
2021/04/21 10:29:49;;;;;;;11.57;6.62;;;;;;;16.35;54.06;100241.33;1724894;83;21149;-76
2021/04/21 10:32:16;;;;;;;8.63;5.97;;;;;;;16.39;53.88;100244.42;1779403;80;21141;-76
2021/04/21 10:34:44;;;;;;;11.28;5.95;;;;;;;16.46;53.58;100246.06;1780222;80;21155;-77
2021/04/21 10:37:12;;;;;;;11.85;5.85;;;;;;;16.45;53.26;100234.97;1780068;80;21198;-76
2021/04/21 10:39:38;;;;;;;10.18;5.37;;;;;;;16.41;52.90;100240.47;1780278;80;21104;-76
2021/04/21 10:42:15;;;;;;;9.35;5.83;;;;;;;16.40;52.71;100234.77;1779947;80;21132;-75
2021/04/21 10:44:45;;;;;;;8.90;5.78;;;;;;;16.53;52.53;100237.13;1780212;80;21156;-76
2021/04/21 10:47:20;;;;;;;10.35;5.60;;;;;;;16.58;52.14;100222.52;1780113;80;21148;-76
2021/04/21 10:50:01;;;;;;;8.28;5.50;;;;;;;16.53;51.67;100234.44;1749893;78;21330;-76
2021/04/21 10:52:33;;;;;;;9.28;5.62;;;;;;;16.59;51.47;100229.56;1693475;82;21147;-77
2021/04/21 10:55:14;;;;;;;9.70;6.08;;;;;;;16.71;51.19;100229.22;1654962;86;21253;-77
2021/04/21 10:58:00;;;;;;;7.92;6.03;;;;;;;16.76;50.94;100230.22;1719373;83;21166;-77
2021/04/21 11:00:31;;;;;;;11.18;5.90;;;;;;;16.85;50.77;100223.53;1716807;83;21130;-76
2021/04/21 11:03:04;;;;;;;12.25;5.70;;;;;;;16.83;50.40;100226.14;1719415;83;22225;-76
2021/04/21 11:05:41;;;;;;;8.30;4.92;;;;;;;16.84;50.00;100229.16;1719255;83;21156;-76
2021/04/21 11:08:21;;;;;;;9.13;5.85;;;;;;;16.84;49.82;100217.86;1719398;83;21146;-77
2021/04/21 11:11:03;;;;;;;12.93;5.30;;;;;;;16.93;49.63;100209.00;1719339;83;21130;-76
2021/04/21 11:13:42;;;;;;;12.70;5.53;;;;;;;16.81;48.87;100216.95;1719477;83;21168;-76
2021/04/21 11:16:26;;;;;;;5.10;4.58;;;;;;;16.68;48.35;100214.81;1719818;83;21260;-76
2021/04/21 11:18:53;;;;;;;7.95;5.62;;;;;;;16.67;48.18;100211.83;1724047;83;21197;-75
2021/04/21 11:21:20;;;;;;;8.75;4.92;;;;;;;16.79;47.99;100206.06;1703444;83;21153;-76
2021/04/21 11:23:58;;;;;;;10.08;5.65;;;;;;;16.90;47.70;100206.73;1724082;83;21138;-76
2021/04/21 11:26:31;;;;;;;11.05;5.70;;;;;;;16.91;47.53;100196.27;1724156;83;21193;-75
2021/04/21 11:29:00;;;;;;;10.28;4.80;;;;;;;16.97;47.10;100211.56;1724260;83;21211;-75
2021/04/21 11:31:47;;;;;;;;;;;;;;;16.93;46.84;100203.61;1726600;83;21153;-75
2021/04/21 11:34:34;;;;;;;9.18;4.85;;;;;;;17.06;46.75;100206.25;1718938;83;20299;-76
2021/04/21 11:37:14;;;;;;;10.72;6.25;;;;;;;17.21;46.70;100198.66;1724107;83;21145;-75
2021/04/21 11:39:47;;;;;;;14.13;6.05;;;;;;;17.26;46.33;100197.50;1724045;83;21114;-75
2021/04/21 11:42:31;;;;;;;9.30;4.83;;;;;;;17.37;46.25;100192.76;1724328;83;21278;-76
2021/04/21 11:45:16;;;;;;;8.23;4.90;;;;;;;17.49;46.17;100193.69;1723994;83;21149;-76
2021/04/21 11:47:57;;;;;;;9.88;5.12;;;;;;;17.53;45.84;100196.77;1724118;83;21671;-77
2021/04/21 11:50:31;;;;;;;10.23;5.40;;;;;;;17.66;45.64;100195.88;1721787;83;21152;-77
2021/04/21 11:53:14;;;;;;;9.03;4.70;;;;;;;17.78;45.34;100190.05;1713076;83;21188;-77
2021/04/21 11:58:28;;;;;;;8.45;4.53;;;;;;;17.72;44.66;100189.59;1713089;83;21151;-75
2021/04/21 12:01:03;;;;;;;14.25;5.10;;;;;;;17.72;44.13;100193.64;1713019;83;21188;-75